sensor_id;sensor_type;location;lat;lon;timestamp;P1;durP1;ratioP1;P2;durP2;ratioP2
53299;SDS011;39187;48.476;8.310;2023-04-06T00:00:18;6.80;;;6.17;;
53299;SDS011;39187;48.476;8.310;2023-04-06T00:02:44;8.13;;;7.40;;
53299;SDS011;39187;48.476;8.310;2023-04-06T00:05:09;7.07;;;6.47;;
53299;SDS011;39187;48.476;8.310;2023-04-06T00:07:35;12.90;;;6.60;;
53299;SDS011;39187;48.476;8.310;2023-04-06T00:10:01;7.90;;;7.10;;
53299;SDS011;39187;48.476;8.310;2023-04-06T00:12:28;8.57;;;7.57;;
53299;SDS011;39187;48.476;8.310;2023-04-06T00:14:53;9.00;;;8.30;;
53299;SDS011;39187;48.476;8.310;2023-04-06T00:17:19;8.63;;;7.90;;
53299;SDS011;39187;48.476;8.310;2023-04-06T00:19:44;8.93;;;8.10;;
53299;SDS011;39187;48.476;8.310;2023-04-06T00:22:10;9.57;;;8.67;;
53299;SDS011;39187;48.476;8.310;2023-04-06T00:24:35;6.30;;;5.80;;
53299;SDS011;39187;48.476;8.310;2023-04-06T00:27:01;6.70;;;6.40;;
53299;SDS011;39187;48.476;8.310;2023-04-06T00:29:27;7.73;;;7.17;;
53299;SDS011;39187;48.476;8.310;2023-04-06T00:31:52;10.70;;;9.60;;
53299;SDS011;39187;48.476;8.310;2023-04-06T00:34:18;7.47;;;7.07;;
53299;SDS011;39187;48.476;8.310;2023-04-06T00:36:43;9.50;;;8.07;;
53299;SDS011;39187;48.476;8.310;2023-04-06T00:39:09;7.33;;;6.70;;
53299;SDS011;39187;48.476;8.310;2023-04-06T00:41:35;8.77;;;7.87;;
53299;SDS011;39187;48.476;8.310;2023-04-06T00:44:00;7.87;;;7.33;;
53299;SDS011;39187;48.476;8.310;2023-04-06T00:46:26;8.40;;;7.80;;
53299;SDS011;39187;48.476;8.310;2023-04-06T00:48:52;7.67;;;6.90;;
53299;SDS011;39187;48.476;8.310;2023-04-06T00:51:17;11.60;;;7.10;;
53299;SDS011;39187;48.476;8.310;2023-04-06T00:53:43;7.00;;;6.60;;
53299;SDS011;39187;48.476;8.310;2023-04-06T00:56:08;7.40;;;6.83;;
53299;SDS011;39187;48.476;8.310;2023-04-06T00:58:35;8.70;;;7.80;;
53299;SDS011;39187;48.476;8.310;2023-04-06T01:01:03;7.00;;;6.40;;
53299;SDS011;39187;48.476;8.310;2023-04-06T01:03:30;8.17;;;7.53;;
53299;SDS011;39187;48.476;8.310;2023-04-06T01:05:55;6.90;;;6.50;;
53299;SDS011;39187;48.476;8.310;2023-04-06T01:08:23;7.90;;;7.30;;
53299;SDS011;39187;48.476;8.310;2023-04-06T01:10:49;7.60;;;7.00;;
53299;SDS011;39187;48.476;8.310;2023-04-06T01:13:15;9.27;;;7.70;;
53299;SDS011;39187;48.476;8.310;2023-04-06T01:15:41;7.33;;;6.93;;
53299;SDS011;39187;48.476;8.310;2023-04-06T01:18:08;8.90;;;8.10;;
53299;SDS011;39187;48.476;8.310;2023-04-06T01:20:35;7.17;;;6.63;;
53299;SDS011;39187;48.476;8.310;2023-04-06T01:23:01;8.00;;;7.27;;
53299;SDS011;39187;48.476;8.310;2023-04-06T01:25:27;8.57;;;7.67;;
53299;SDS011;39187;48.476;8.310;2023-04-06T01:27:52;7.80;;;7.23;;
53299;SDS011;39187;48.476;8.310;2023-04-06T01:30:18;8.07;;;7.47;;
53299;SDS011;39187;48.476;8.310;2023-04-06T01:32:44;7.80;;;7.17;;
53299;SDS011;39187;48.476;8.310;2023-04-06T01:35:10;7.73;;;7.13;;
53299;SDS011;39187;48.476;8.310;2023-04-06T01:37:36;8.97;;;8.00;;
53299;SDS011;39187;48.476;8.310;2023-04-06T01:40:02;7.83;;;7.27;;
53299;SDS011;39187;48.476;8.310;2023-04-06T01:42:28;8.03;;;7.37;;
53299;SDS011;39187;48.476;8.310;2023-04-06T01:44:55;7.97;;;7.47;;
53299;SDS011;39187;48.476;8.310;2023-04-06T01:47:20;7.80;;;7.10;;
53299;SDS011;39187;48.476;8.310;2023-04-06T01:49:46;8.97;;;8.10;;
53299;SDS011;39187;48.476;8.310;2023-04-06T01:52:11;7.23;;;6.50;;
53299;SDS011;39187;48.476;8.310;2023-04-06T01:54:37;11.60;;;9.00;;
53299;SDS011;39187;48.476;8.310;2023-04-06T01:57:02;8.77;;;8.17;;
53299;SDS011;39187;48.476;8.310;2023-04-06T01:59:28;9.27;;;8.13;;
53299;SDS011;39187;48.476;8.310;2023-04-06T02:01:53;8.07;;;7.33;;
53299;SDS011;39187;48.476;8.310;2023-04-06T02:04:19;8.53;;;7.87;;
53299;SDS011;39187;48.476;8.310;2023-04-06T02:06:46;7.83;;;7.40;;
53299;SDS011;39187;48.476;8.310;2023-04-06T02:09:11;9.63;;;8.50;;
53299;SDS011;39187;48.476;8.310;2023-04-06T02:11:37;8.40;;;7.70;;
53299;SDS011;39187;48.476;8.310;2023-04-06T02:14:03;8.40;;;7.80;;
53299;SDS011;39187;48.476;8.310;2023-04-06T02:16:28;8.50;;;7.80;;
53299;SDS011;39187;48.476;8.310;2023-04-06T02:18:54;7.47;;;6.83;;
53299;SDS011;39187;48.476;8.310;2023-04-06T02:21:19;8.33;;;7.73;;
53299;SDS011;39187;48.476;8.310;2023-04-06T02:23:48;7.90;;;7.50;;
53299;SDS011;39187;48.476;8.310;2023-04-06T02:26:14;8.10;;;7.60;;
53299;SDS011;39187;48.476;8.310;2023-04-06T02:28:40;7.87;;;7.30;;
53299;SDS011;39187;48.476;8.310;2023-04-06T02:31:06;8.03;;;7.23;;
53299;SDS011;39187;48.476;8.310;2023-04-06T02:33:32;8.27;;;7.50;;
53299;SDS011;39187;48.476;8.310;2023-04-06T02:35:57;7.93;;;7.43;;
53299;SDS011;39187;48.476;8.310;2023-04-06T02:38:23;8.73;;;8.10;;
53299;SDS011;39187;48.476;8.310;2023-04-06T02:40:48;8.77;;;8.10;;
53299;SDS011;39187;48.476;8.310;2023-04-06T02:43:14;8.83;;;8.13;;
53299;SDS011;39187;48.476;8.310;2023-04-06T02:45:42;7.97;;;7.40;;
53299;SDS011;39187;48.476;8.310;2023-04-06T02:48:07;7.60;;;7.20;;
53299;SDS011;39187;48.476;8.310;2023-04-06T02:50:33;8.00;;;7.40;;
53299;SDS011;39187;48.476;8.310;2023-04-06T02:52:58;8.60;;;7.90;;
53299;SDS011;39187;48.476;8.310;2023-04-06T02:55:24;8.03;;;7.53;;
53299;SDS011;39187;48.476;8.310;2023-04-06T02:57:49;7.87;;;7.37;;
53299;SDS011;39187;48.476;8.310;2023-04-06T03:00:15;9.07;;;8.27;;
53299;SDS011;39187;48.476;8.310;2023-04-06T03:02:41;9.43;;;8.60;;
53299;SDS011;39187;48.476;8.310;2023-04-06T03:05:06;9.33;;;8.50;;
53299;SDS011;39187;48.476;8.310;2023-04-06T03:07:32;9.00;;;8.20;;
53299;SDS011;39187;48.476;8.310;2023-04-06T03:09:57;8.60;;;8.00;;
53299;SDS011;39187;48.476;8.310;2023-04-06T03:12:23;8.07;;;7.37;;
53299;SDS011;39187;48.476;8.310;2023-04-06T03:14:48;9.53;;;8.67;;
53299;SDS011;39187;48.476;8.310;2023-04-06T03:17:14;8.90;;;8.20;;
53299;SDS011;39187;48.476;8.310;2023-04-06T03:19:40;9.30;;;8.60;;
53299;SDS011;39187;48.476;8.310;2023-04-06T03:22:05;9.23;;;8.53;;
53299;SDS011;39187;48.476;8.310;2023-04-06T03:24:31;8.53;;;7.83;;
53299;SDS011;39187;48.476;8.310;2023-04-06T03:26:56;19.60;;;10.73;;
53299;SDS011;39187;48.476;8.310;2023-04-06T03:29:22;11.27;;;8.93;;
53299;SDS011;39187;48.476;8.310;2023-04-06T03:31:47;9.27;;;8.17;;
53299;SDS011;39187;48.476;8.310;2023-04-06T03:34:13;9.13;;;8.40;;
53299;SDS011;39187;48.476;8.310;2023-04-06T03:36:38;8.50;;;7.90;;
53299;SDS011;39187;48.476;8.310;2023-04-06T03:39:04;10.43;;;9.67;;
53299;SDS011;39187;48.476;8.310;2023-04-06T03:41:30;10.97;;;8.00;;
53299;SDS011;39187;48.476;8.310;2023-04-06T03:43:55;8.47;;;7.80;;
53299;SDS011;39187;48.476;8.310;2023-04-06T03:46:21;9.47;;;8.47;;
53299;SDS011;39187;48.476;8.310;2023-04-06T03:48:48;9.80;;;8.90;;
53299;SDS011;39187;48.476;8.310;2023-04-06T03:51:13;9.40;;;8.60;;
53299;SDS011;39187;48.476;8.310;2023-04-06T03:53:39;9.50;;;8.50;;
53299;SDS011;39187;48.476;8.310;2023-04-06T03:56:06;9.80;;;8.57;;
53299;SDS011;39187;48.476;8.310;2023-04-06T03:58:32;9.47;;;8.77;;
53299;SDS011;39187;48.476;8.310;2023-04-06T04:00:57;9.43;;;8.53;;
53299;SDS011;39187;48.476;8.310;2023-04-06T04:03:23;8.13;;;7.43;;
53299;SDS011;39187;48.476;8.310;2023-04-06T04:05:51;9.70;;;8.87;;
53299;SDS011;39187;48.476;8.310;2023-04-06T04:08:16;9.63;;;8.77;;
53299;SDS011;39187;48.476;8.310;2023-04-06T04:10:42;9.17;;;8.23;;
53299;SDS011;39187;48.476;8.310;2023-04-06T04:13:07;8.87;;;8.03;;
53299;SDS011;39187;48.476;8.310;2023-04-06T04:15:33;10.20;;;9.40;;
53299;SDS011;39187;48.476;8.310;2023-04-06T04:17:58;9.57;;;8.80;;
53299;SDS011;39187;48.476;8.310;2023-04-06T04:20:24;9.00;;;8.40;;
53299;SDS011;39187;48.476;8.310;2023-04-06T04:22:49;7.90;;;7.30;;
53299;SDS011;39187;48.476;8.310;2023-04-06T04:25:15;10.00;;;9.00;;
53299;SDS011;39187;48.476;8.310;2023-04-06T04:27:40;9.00;;;8.33;;
53299;SDS011;39187;48.476;8.310;2023-04-06T04:30:06;13.20;;;9.13;;
53299;SDS011;39187;48.476;8.310;2023-04-06T04:32:32;8.60;;;8.10;;
53299;SDS011;39187;48.476;8.310;2023-04-06T04:34:58;7.23;;;6.73;;
53299;SDS011;39187;48.476;8.310;2023-04-06T04:37:23;8.80;;;7.90;;
53299;SDS011;39187;48.476;8.310;2023-04-06T04:39:49;8.33;;;7.73;;
53299;SDS011;39187;48.476;8.310;2023-04-06T04:42:14;9.20;;;8.40;;
53299;SDS011;39187;48.476;8.310;2023-04-06T04:44:40;12.00;;;8.63;;
53299;SDS011;39187;48.476;8.310;2023-04-06T04:47:06;7.90;;;7.50;;
53299;SDS011;39187;48.476;8.310;2023-04-06T04:49:31;8.17;;;7.53;;
53299;SDS011;39187;48.476;8.310;2023-04-06T04:51:57;9.77;;;8.80;;
53299;SDS011;39187;48.476;8.310;2023-04-06T04:54:22;8.17;;;7.70;;
53299;SDS011;39187;48.476;8.310;2023-04-06T04:56:48;9.00;;;8.13;;
53299;SDS011;39187;48.476;8.310;2023-04-06T04:59:13;8.77;;;7.77;;
53299;SDS011;39187;48.476;8.310;2023-04-06T05:01:39;9.90;;;8.87;;
53299;SDS011;39187;48.476;8.310;2023-04-06T05:04:05;8.50;;;7.83;;
53299;SDS011;39187;48.476;8.310;2023-04-06T05:06:30;7.87;;;7.33;;
53299;SDS011;39187;48.476;8.310;2023-04-06T05:08:56;8.93;;;8.13;;
53299;SDS011;39187;48.476;8.310;2023-04-06T05:11:21;8.70;;;8.10;;
53299;SDS011;39187;48.476;8.310;2023-04-06T05:13:47;8.60;;;8.00;;
53299;SDS011;39187;48.476;8.310;2023-04-06T05:16:13;7.70;;;7.07;;
53299;SDS011;39187;48.476;8.310;2023-04-06T05:18:38;8.47;;;7.90;;
53299;SDS011;39187;48.476;8.310;2023-04-06T05:21:04;12.87;;;8.93;;
53299;SDS011;39187;48.476;8.310;2023-04-06T05:23:30;8.97;;;8.23;;
53299;SDS011;39187;48.476;8.310;2023-04-06T05:25:55;8.07;;;7.47;;
53299;SDS011;39187;48.476;8.310;2023-04-06T05:28:21;9.30;;;7.53;;
53299;SDS011;39187;48.476;8.310;2023-04-06T05:30:47;8.97;;;8.07;;
53299;SDS011;39187;48.476;8.310;2023-04-06T05:33:12;9.23;;;8.33;;
53299;SDS011;39187;48.476;8.310;2023-04-06T05:35:38;13.07;;;7.63;;
53299;SDS011;39187;48.476;8.310;2023-04-06T05:38:07;8.60;;;8.00;;
53299;SDS011;39187;48.476;8.310;2023-04-06T05:40:33;8.07;;;7.37;;
53299;SDS011;39187;48.476;8.310;2023-04-06T05:42:59;10.63;;;8.17;;
53299;SDS011;39187;48.476;8.310;2023-04-06T05:45:25;8.57;;;7.90;;
53299;SDS011;39187;48.476;8.310;2023-04-06T05:47:51;8.63;;;7.97;;
53299;SDS011;39187;48.476;8.310;2023-04-06T05:50:16;9.20;;;8.27;;
53299;SDS011;39187;48.476;8.310;2023-04-06T05:52:42;8.07;;;7.20;;
53299;SDS011;39187;48.476;8.310;2023-04-06T05:55:08;8.50;;;7.90;;
53299;SDS011;39187;48.476;8.310;2023-04-06T05:57:34;8.07;;;7.53;;
53299;SDS011;39187;48.476;8.310;2023-04-06T06:00:00;9.67;;;8.30;;
53299;SDS011;39187;48.476;8.310;2023-04-06T06:02:25;9.30;;;8.60;;
53299;SDS011;39187;48.476;8.310;2023-04-06T06:04:51;10.63;;;8.00;;
53299;SDS011;39187;48.476;8.310;2023-04-06T06:07:16;8.80;;;8.00;;
53299;SDS011;39187;48.476;8.310;2023-04-06T06:09:42;9.87;;;8.13;;
53299;SDS011;39187;48.476;8.310;2023-04-06T06:12:08;8.73;;;8.17;;
53299;SDS011;39187;48.476;8.310;2023-04-06T06:14:34;10.23;;;9.17;;
53299;SDS011;39187;48.476;8.310;2023-04-06T06:16:59;7.90;;;7.30;;
53299;SDS011;39187;48.476;8.310;2023-04-06T06:19:25;8.67;;;8.00;;
53299;SDS011;39187;48.476;8.310;2023-04-06T06:21:50;7.57;;;7.17;;
53299;SDS011;39187;48.476;8.310;2023-04-06T06:24:16;7.23;;;6.73;;
53299;SDS011;39187;48.476;8.310;2023-04-06T06:26:41;8.33;;;7.73;;
53299;SDS011;39187;48.476;8.310;2023-04-06T06:29:08;7.83;;;7.23;;
53299;SDS011;39187;48.476;8.310;2023-04-06T06:31:34;7.50;;;6.93;;
53299;SDS011;39187;48.476;8.310;2023-04-06T06:34:00;7.63;;;7.10;;
53299;SDS011;39187;48.476;8.310;2023-04-06T06:36:27;6.60;;;6.30;;
53299;SDS011;39187;48.476;8.310;2023-04-06T06:38:53;7.30;;;6.90;;
53299;SDS011;39187;48.476;8.310;2023-04-06T06:41:18;6.40;;;6.10;;
53299;SDS011;39187;48.476;8.310;2023-04-06T06:43:44;12.53;;;7.07;;
53299;SDS011;39187;48.476;8.310;2023-04-06T06:46:09;8.63;;;7.80;;
53299;SDS011;39187;48.476;8.310;2023-04-06T06:48:35;7.33;;;6.97;;
53299;SDS011;39187;48.476;8.310;2023-04-06T06:51:01;7.87;;;7.30;;
53299;SDS011;39187;48.476;8.310;2023-04-06T06:53:26;16.47;;;7.87;;
53299;SDS011;39187;48.476;8.310;2023-04-06T06:55:52;8.50;;;8.00;;
53299;SDS011;39187;48.476;8.310;2023-04-06T06:58:18;17.63;;;14.30;;
53299;SDS011;39187;48.476;8.310;2023-04-06T07:00:45;9.57;;;8.77;;
53299;SDS011;39187;48.476;8.310;2023-04-06T07:03:10;8.50;;;7.87;;
53299;SDS011;39187;48.476;8.310;2023-04-06T07:05:36;8.30;;;7.73;;
53299;SDS011;39187;48.476;8.310;2023-04-06T07:08:02;8.70;;;7.87;;
53299;SDS011;39187;48.476;8.310;2023-04-06T07:10:27;8.47;;;7.97;;
53299;SDS011;39187;48.476;8.310;2023-04-06T07:12:53;9.27;;;8.67;;
53299;SDS011;39187;48.476;8.310;2023-04-06T07:15:19;7.00;;;6.60;;
53299;SDS011;39187;48.476;8.310;2023-04-06T07:17:44;7.63;;;7.13;;
53299;SDS011;39187;48.476;8.310;2023-04-06T07:20:10;8.87;;;8.10;;
53299;SDS011;39187;48.476;8.310;2023-04-06T07:22:37;8.37;;;7.70;;
53299;SDS011;39187;48.476;8.310;2023-04-06T07:25:03;7.60;;;7.10;;
53299;SDS011;39187;48.476;8.310;2023-04-06T07:27:30;7.07;;;6.67;;
53299;SDS011;39187;48.476;8.310;2023-04-06T07:29:55;7.70;;;7.10;;
53299;SDS011;39187;48.476;8.310;2023-04-06T07:32:21;7.30;;;6.87;;
53299;SDS011;39187;48.476;8.310;2023-04-06T07:34:46;6.93;;;6.63;;
53299;SDS011;39187;48.476;8.310;2023-04-06T07:37:12;7.43;;;6.90;;
53299;SDS011;39187;48.476;8.310;2023-04-06T07:39:38;7.90;;;7.33;;
53299;SDS011;39187;48.476;8.310;2023-04-06T07:42:03;7.83;;;7.20;;
53299;SDS011;39187;48.476;8.310;2023-04-06T07:44:29;7.80;;;7.23;;
53299;SDS011;39187;48.476;8.310;2023-04-06T07:46:55;6.80;;;6.50;;
53299;SDS011;39187;48.476;8.310;2023-04-06T07:49:20;6.87;;;6.30;;
53299;SDS011;39187;48.476;8.310;2023-04-06T07:51:46;7.80;;;7.40;;
53299;SDS011;39187;48.476;8.310;2023-04-06T07:54:12;9.27;;;8.33;;
53299;SDS011;39187;48.476;8.310;2023-04-06T07:56:37;18.40;;;8.00;;
53299;SDS011;39187;48.476;8.310;2023-04-06T07:59:03;7.73;;;6.93;;
53299;SDS011;39187;48.476;8.310;2023-04-06T08:01:28;7.40;;;6.73;;
53299;SDS011;39187;48.476;8.310;2023-04-06T08:03:55;8.13;;;7.63;;
53299;SDS011;39187;48.476;8.310;2023-04-06T08:06:21;7.93;;;7.33;;
53299;SDS011;39187;48.476;8.310;2023-04-06T08:08:47;8.00;;;7.50;;
53299;SDS011;39187;48.476;8.310;2023-04-06T08:11:12;6.73;;;6.10;;
53299;SDS011;39187;48.476;8.310;2023-04-06T08:13:38;7.43;;;7.13;;
53299;SDS011;39187;48.476;8.310;2023-04-06T08:16:04;6.83;;;6.50;;
53299;SDS011;39187;48.476;8.310;2023-04-06T08:18:29;6.50;;;6.17;;
53299;SDS011;39187;48.476;8.310;2023-04-06T08:20:55;8.10;;;7.30;;
53299;SDS011;39187;48.476;8.310;2023-04-06T08:23:22;9.63;;;6.50;;
53299;SDS011;39187;48.476;8.310;2023-04-06T08:25:47;7.10;;;6.80;;
53299;SDS011;39187;48.476;8.310;2023-04-06T08:28:13;7.40;;;6.83;;
53299;SDS011;39187;48.476;8.310;2023-04-06T08:30:42;6.93;;;6.50;;
53299;SDS011;39187;48.476;8.310;2023-04-06T08:33:08;6.77;;;6.43;;
53299;SDS011;39187;48.476;8.310;2023-04-06T08:35:34;7.13;;;6.50;;
53299;SDS011;39187;48.476;8.310;2023-04-06T08:38:00;7.00;;;6.40;;
53299;SDS011;39187;48.476;8.310;2023-04-06T08:40:26;5.97;;;5.57;;
53299;SDS011;39187;48.476;8.310;2023-04-06T08:42:54;5.60;;;5.30;;
53299;SDS011;39187;48.476;8.310;2023-04-06T08:45:21;6.10;;;5.50;;
53299;SDS011;39187;48.476;8.310;2023-04-06T08:47:51;5.10;;;4.80;;
53299;SDS011;39187;48.476;8.310;2023-04-06T08:50:18;4.97;;;4.57;;
53299;SDS011;39187;48.476;8.310;2023-04-06T08:52:48;5.00;;;4.80;;
53299;SDS011;39187;48.476;8.310;2023-04-06T08:55:23;8.17;;;4.93;;
53299;SDS011;39187;48.476;8.310;2023-04-06T08:58:05;5.07;;;4.77;;
53299;SDS011;39187;48.476;8.310;2023-04-06T09:10:55;5.90;;;5.40;;
53299;SDS011;39187;48.476;8.310;2023-04-06T09:13:21;5.80;;;5.50;;
53299;SDS011;39187;48.476;8.310;2023-04-06T09:15:46;5.87;;;5.57;;
53299;SDS011;39187;48.476;8.310;2023-04-06T09:18:12;6.10;;;5.80;;
53299;SDS011;39187;48.476;8.310;2023-04-06T09:20:37;5.80;;;5.30;;
53299;SDS011;39187;48.476;8.310;2023-04-06T09:23:03;6.17;;;5.87;;
53299;SDS011;39187;48.476;8.310;2023-04-06T09:25:28;5.70;;;5.43;;
53299;SDS011;39187;48.476;8.310;2023-04-06T09:27:59;6.33;;;6.03;;
53299;SDS011;39187;48.476;8.310;2023-04-06T09:30:27;6.63;;;6.00;;
53299;SDS011;39187;48.476;8.310;2023-04-06T09:32:54;5.97;;;5.67;;
53299;SDS011;39187;48.476;8.310;2023-04-06T09:35:21;5.87;;;5.57;;
53299;SDS011;39187;48.476;8.310;2023-04-06T09:37:49;5.47;;;5.17;;
53299;SDS011;39187;48.476;8.310;2023-04-06T09:40:27;5.20;;;5.00;;
53299;SDS011;39187;48.476;8.310;2023-04-06T09:42:54;5.10;;;4.80;;
53299;SDS011;39187;48.476;8.310;2023-04-06T09:45:22;6.00;;;5.50;;
53299;SDS011;39187;48.476;8.310;2023-04-06T09:47:48;6.00;;;5.47;;
53299;SDS011;39187;48.476;8.310;2023-04-06T09:50:16;4.77;;;4.57;;
53299;SDS011;39187;48.476;8.310;2023-04-06T09:52:46;6.37;;;5.87;;
53299;SDS011;39187;48.476;8.310;2023-04-06T09:55:28;5.93;;;5.53;;
53299;SDS011;39187;48.476;8.310;2023-04-06T09:58:06;5.03;;;4.73;;
53299;SDS011;39187;48.476;8.310;2023-04-06T10:00:47;4.77;;;4.57;;
53299;SDS011;39187;48.476;8.310;2023-04-06T10:06:13;5.73;;;5.27;;
53299;SDS011;39187;48.476;8.310;2023-04-06T10:08:42;6.23;;;5.77;;
53299;SDS011;39187;48.476;8.310;2023-04-06T10:11:14;5.37;;;5.03;;
53299;SDS011;39187;48.476;8.310;2023-04-06T10:13:42;9.77;;;5.03;;
53299;SDS011;39187;48.476;8.310;2023-04-06T10:16:09;4.73;;;4.53;;
53299;SDS011;39187;48.476;8.310;2023-04-06T10:18:38;4.80;;;4.60;;
53299;SDS011;39187;48.476;8.310;2023-04-06T10:21:14;4.23;;;4.03;;
53299;SDS011;39187;48.476;8.310;2023-04-06T10:26:17;4.90;;;4.70;;
53299;SDS011;39187;48.476;8.310;2023-04-06T10:28:46;4.73;;;4.37;;
53299;SDS011;39187;48.476;8.310;2023-04-06T10:31:12;5.83;;;5.43;;
53299;SDS011;39187;48.476;8.310;2023-04-06T10:33:38;5.60;;;5.20;;
53299;SDS011;39187;48.476;8.310;2023-04-06T10:36:10;4.80;;;4.60;;
53299;SDS011;39187;48.476;8.310;2023-04-06T10:38:40;4.40;;;4.13;;
53299;SDS011;39187;48.476;8.310;2023-04-06T10:41:09;4.60;;;4.40;;
53299;SDS011;39187;48.476;8.310;2023-04-06T10:43:37;5.53;;;5.20;;
53299;SDS011;39187;48.476;8.310;2023-04-06T10:46:05;6.47;;;5.30;;
53299;SDS011;39187;48.476;8.310;2023-04-06T10:48:38;5.70;;;5.30;;
53299;SDS011;39187;48.476;8.310;2023-04-06T10:51:15;5.80;;;5.30;;
53299;SDS011;39187;48.476;8.310;2023-04-06T10:53:43;5.83;;;5.53;;
53299;SDS011;39187;48.476;8.310;2023-04-06T10:56:12;5.70;;;5.20;;
53299;SDS011;39187;48.476;8.310;2023-04-06T10:58:49;5.80;;;5.30;;
53299;SDS011;39187;48.476;8.310;2023-04-06T11:01:17;4.70;;;4.50;;
53299;SDS011;39187;48.476;8.310;2023-04-06T11:03:48;5.90;;;5.47;;
53299;SDS011;39187;48.476;8.310;2023-04-06T11:08:46;6.70;;;6.20;;
53299;SDS011;39187;48.476;8.310;2023-04-06T11:11:12;6.40;;;6.00;;
53299;SDS011;39187;48.476;8.310;2023-04-06T11:13:41;5.60;;;5.10;;
53299;SDS011;39187;48.476;8.310;2023-04-06T11:16:18;5.53;;;5.20;;
53299;SDS011;39187;48.476;8.310;2023-04-06T11:18:49;5.20;;;4.97;;
53299;SDS011;39187;48.476;8.310;2023-04-06T11:22:05;3.90;;;3.70;;
53299;SDS011;39187;48.476;8.310;2023-04-06T11:24:17;4.73;;;4.53;;
53299;SDS011;39187;48.476;8.310;2023-04-06T11:26:45;4.83;;;4.63;;
53299;SDS011;39187;48.476;8.310;2023-04-06T11:29:15;5.40;;;5.10;;
53299;SDS011;39187;48.476;8.310;2023-04-06T11:31:45;4.13;;;3.83;;
53299;SDS011;39187;48.476;8.310;2023-04-06T11:34:21;6.63;;;4.50;;
53299;SDS011;39187;48.476;8.310;2023-04-06T11:36:49;4.97;;;4.77;;
53299;SDS011;39187;48.476;8.310;2023-04-06T11:39:22;4.37;;;4.17;;
53299;SDS011;39187;48.476;8.310;2023-04-06T11:41:49;4.97;;;4.67;;
53299;SDS011;39187;48.476;8.310;2023-04-06T11:47:03;4.90;;;4.60;;
53299;SDS011;39187;48.476;8.310;2023-04-06T11:49:31;4.60;;;4.20;;
53299;SDS011;39187;48.476;8.310;2023-04-06T11:51:58;4.80;;;4.50;;
53299;SDS011;39187;48.476;8.310;2023-04-06T11:54:31;7.00;;;5.80;;
53299;SDS011;39187;48.476;8.310;2023-04-06T11:57:02;5.57;;;5.17;;
53299;SDS011;39187;48.476;8.310;2023-04-06T11:59:29;4.60;;;4.40;;
53299;SDS011;39187;48.476;8.310;2023-04-06T12:01:55;4.77;;;4.47;;
53299;SDS011;39187;48.476;8.310;2023-04-06T12:04:22;4.77;;;4.57;;
53299;SDS011;39187;48.476;8.310;2023-04-06T12:06:47;5.00;;;4.67;;
53299;SDS011;39187;48.476;8.310;2023-04-06T12:09:13;5.10;;;4.80;;
53299;SDS011;39187;48.476;8.310;2023-04-06T12:11:39;4.73;;;4.43;;
53299;SDS011;39187;48.476;8.310;2023-04-06T12:14:06;5.20;;;4.90;;
53299;SDS011;39187;48.476;8.310;2023-04-06T12:16:32;4.80;;;4.50;;
53299;SDS011;39187;48.476;8.310;2023-04-06T12:18:59;5.40;;;5.10;;
53299;SDS011;39187;48.476;8.310;2023-04-06T12:21:29;7.20;;;4.30;;
53299;SDS011;39187;48.476;8.310;2023-04-06T12:23:56;5.03;;;4.63;;
53299;SDS011;39187;48.476;8.310;2023-04-06T12:26:26;5.30;;;4.90;;
53299;SDS011;39187;48.476;8.310;2023-04-06T12:28:52;5.33;;;4.90;;
53299;SDS011;39187;48.476;8.310;2023-04-06T12:31:18;5.50;;;5.10;;
53299;SDS011;39187;48.476;8.310;2023-04-06T12:33:48;4.50;;;4.23;;
53299;SDS011;39187;48.476;8.310;2023-04-06T12:36:15;5.50;;;4.77;;
53299;SDS011;39187;48.476;8.310;2023-04-06T12:38:44;5.60;;;5.30;;
53299;SDS011;39187;48.476;8.310;2023-04-06T12:41:12;5.40;;;5.10;;
53299;SDS011;39187;48.476;8.310;2023-04-06T12:43:38;5.50;;;5.03;;
53299;SDS011;39187;48.476;8.310;2023-04-06T12:46:05;6.23;;;5.70;;
53299;SDS011;39187;48.476;8.310;2023-04-06T12:48:30;6.10;;;5.70;;
53299;SDS011;39187;48.476;8.310;2023-04-06T12:50:58;6.03;;;5.73;;
53299;SDS011;39187;48.476;8.310;2023-04-06T12:53:25;6.77;;;6.20;;
53299;SDS011;39187;48.476;8.310;2023-04-06T12:55:53;8.20;;;6.50;;
53299;SDS011;39187;48.476;8.310;2023-04-06T12:58:19;6.77;;;6.20;;
53299;SDS011;39187;48.476;8.310;2023-04-06T13:00:45;6.53;;;5.73;;
53299;SDS011;39187;48.476;8.310;2023-04-06T13:03:12;7.90;;;7.30;;
53299;SDS011;39187;48.476;8.310;2023-04-06T13:05:44;10.57;;;6.50;;
53299;SDS011;39187;48.476;8.310;2023-04-06T13:08:11;7.80;;;6.77;;
53299;SDS011;39187;48.476;8.310;2023-04-06T13:10:37;7.40;;;6.90;;
53299;SDS011;39187;48.476;8.310;2023-04-06T13:13:03;7.90;;;7.10;;
53299;SDS011;39187;48.476;8.310;2023-04-06T13:15:28;7.33;;;6.80;;
53299;SDS011;39187;48.476;8.310;2023-04-06T13:17:54;7.07;;;6.50;;
53299;SDS011;39187;48.476;8.310;2023-04-06T13:20:20;6.97;;;6.40;;
53299;SDS011;39187;48.476;8.310;2023-04-06T13:22:46;6.17;;;5.60;;
53299;SDS011;39187;48.476;8.310;2023-04-06T13:25:11;6.53;;;6.00;;
53299;SDS011;39187;48.476;8.310;2023-04-06T13:27:37;5.77;;;5.47;;
53299;SDS011;39187;48.476;8.310;2023-04-06T13:30:03;5.80;;;5.50;;
53299;SDS011;39187;48.476;8.310;2023-04-06T13:32:29;6.47;;;5.90;;
53299;SDS011;39187;48.476;8.310;2023-04-06T13:34:56;6.47;;;5.93;;
53299;SDS011;39187;48.476;8.310;2023-04-06T13:37:22;6.03;;;5.63;;
53299;SDS011;39187;48.476;8.310;2023-04-06T13:39:48;5.73;;;5.23;;
53299;SDS011;39187;48.476;8.310;2023-04-06T13:42:14;5.90;;;5.30;;
53299;SDS011;39187;48.476;8.310;2023-04-06T13:44:39;5.30;;;4.87;;
53299;SDS011;39187;48.476;8.310;2023-04-06T13:47:05;5.97;;;5.67;;
53299;SDS011;39187;48.476;8.310;2023-04-06T13:49:31;5.50;;;5.20;;
53299;SDS011;39187;48.476;8.310;2023-04-06T13:51:57;5.37;;;5.07;;
53299;SDS011;39187;48.476;8.310;2023-04-06T13:54:23;5.93;;;5.63;;
53299;SDS011;39187;48.476;8.310;2023-04-06T13:56:48;4.97;;;4.67;;
53299;SDS011;39187;48.476;8.310;2023-04-06T13:59:14;5.93;;;5.53;;
53299;SDS011;39187;48.476;8.310;2023-04-06T14:01:39;5.13;;;4.73;;
53299;SDS011;39187;48.476;8.310;2023-04-06T14:04:05;4.57;;;4.27;;
53299;SDS011;39187;48.476;8.310;2023-04-06T14:06:30;5.27;;;4.83;;
53299;SDS011;39187;48.476;8.310;2023-04-06T14:08:56;5.33;;;4.90;;
53299;SDS011;39187;48.476;8.310;2023-04-06T14:11:22;3.97;;;3.73;;
53299;SDS011;39187;48.476;8.310;2023-04-06T14:13:47;4.03;;;3.80;;
53299;SDS011;39187;48.476;8.310;2023-04-06T14:16:13;3.67;;;3.47;;
53299;SDS011;39187;48.476;8.310;2023-04-06T14:18:38;3.87;;;3.67;;
53299;SDS011;39187;48.476;8.310;2023-04-06T14:21:04;3.93;;;3.73;;
53299;SDS011;39187;48.476;8.310;2023-04-06T14:23:30;3.60;;;3.40;;
53299;SDS011;39187;48.476;8.310;2023-04-06T14:26:03;3.00;;;2.80;;
53299;SDS011;39187;48.476;8.310;2023-04-06T14:28:32;3.80;;;3.60;;
53299;SDS011;39187;48.476;8.310;2023-04-06T14:31:01;4.03;;;3.83;;
53299;SDS011;39187;48.476;8.310;2023-04-06T14:33:34;3.63;;;3.33;;
53299;SDS011;39187;48.476;8.310;2023-04-06T14:36:02;3.87;;;3.57;;
53299;SDS011;39187;48.476;8.310;2023-04-06T14:38:28;4.63;;;4.30;;
53299;SDS011;39187;48.476;8.310;2023-04-06T14:40:54;4.57;;;4.17;;
53299;SDS011;39187;48.476;8.310;2023-04-06T14:43:20;6.17;;;5.63;;
53299;SDS011;39187;48.476;8.310;2023-04-06T14:45:46;4.57;;;4.13;;
53299;SDS011;39187;48.476;8.310;2023-04-06T14:48:12;4.67;;;4.23;;
53299;SDS011;39187;48.476;8.310;2023-04-06T14:50:40;4.90;;;4.50;;
53299;SDS011;39187;48.476;8.310;2023-04-06T14:53:06;5.00;;;4.60;;
53299;SDS011;39187;48.476;8.310;2023-04-06T14:55:32;5.30;;;4.83;;
53299;SDS011;39187;48.476;8.310;2023-04-06T14:57:57;5.10;;;4.70;;
53299;SDS011;39187;48.476;8.310;2023-04-06T15:00:23;5.07;;;4.67;;
53299;SDS011;39187;48.476;8.310;2023-04-06T15:02:48;5.33;;;5.00;;
53299;SDS011;39187;48.476;8.310;2023-04-06T15:05:14;5.53;;;4.53;;